sensor_id;sensor_type;location;lat;lon;timestamp;P1;durP1;ratioP1;P2;durP2;ratioP2
80104;SDS011;69865;47.648;19.030;2023-12-14T00:00:11;37.13;;;36.00;;
80104;SDS011;69865;47.648;19.030;2023-12-14T00:00:44;35.40;;;34.70;;
80104;SDS011;69865;47.648;19.030;2023-12-14T00:01:16;34.63;;;33.77;;
80104;SDS011;69865;47.648;19.030;2023-12-14T00:01:48;35.10;;;34.20;;
80104;SDS011;69865;47.648;19.030;2023-12-14T00:02:20;33.77;;;32.87;;
80104;SDS011;69865;47.648;19.030;2023-12-14T00:02:52;33.70;;;32.80;;
80104;SDS011;69865;47.648;19.030;2023-12-14T00:03:24;31.57;;;30.83;;
80104;SDS011;69865;47.648;19.030;2023-12-14T00:03:56;31.27;;;30.53;;
80104;SDS011;69865;47.648;19.030;2023-12-14T00:04:28;34.27;;;33.43;;
80104;SDS011;69865;47.648;19.030;2023-12-14T00:05:01;34.90;;;33.97;;
80104;SDS011;69865;47.648;19.030;2023-12-14T00:05:33;34.07;;;33.03;;
80104;SDS011;69865;47.648;19.030;2023-12-14T00:06:05;32.23;;;31.33;;
80104;SDS011;69865;47.648;19.030;2023-12-14T00:06:38;32.90;;;31.87;;
80104;SDS011;69865;47.648;19.030;2023-12-14T00:07:10;33.47;;;32.57;;
80104;SDS011;69865;47.648;19.030;2023-12-14T00:07:42;34.23;;;33.40;;
80104;SDS011;69865;47.648;19.030;2023-12-14T00:08:14;34.47;;;33.63;;
80104;SDS011;69865;47.648;19.030;2023-12-14T00:08:46;32.93;;;31.97;;
80104;SDS011;69865;47.648;19.030;2023-12-14T00:09:18;32.77;;;31.87;;
80104;SDS011;69865;47.648;19.030;2023-12-14T00:09:50;33.83;;;33.10;;
80104;SDS011;69865;47.648;19.030;2023-12-14T00:10:22;33.90;;;33.20;;
80104;SDS011;69865;47.648;19.030;2023-12-14T00:10:55;34.57;;;33.77;;
80104;SDS011;69865;47.648;19.030;2023-12-14T00:11:27;34.10;;;33.40;;
80104;SDS011;69865;47.648;19.030;2023-12-14T00:11:59;34.33;;;33.63;;
80104;SDS011;69865;47.648;19.030;2023-12-14T00:12:31;33.83;;;33.10;;
80104;SDS011;69865;47.648;19.030;2023-12-14T00:13:05;34.60;;;33.53;;
80104;SDS011;69865;47.648;19.030;2023-12-14T00:13:37;34.33;;;33.23;;
80104;SDS011;69865;47.648;19.030;2023-12-14T00:14:10;33.70;;;32.70;;
80104;SDS011;69865;47.648;19.030;2023-12-14T00:14:42;34.17;;;33.23;;
80104;SDS011;69865;47.648;19.030;2023-12-14T00:15:14;33.50;;;32.77;;
80104;SDS011;69865;47.648;19.030;2023-12-14T00:15:46;32.90;;;32.10;;
80104;SDS011;69865;47.648;19.030;2023-12-14T00:16:18;31.83;;;30.90;;
80104;SDS011;69865;47.648;19.030;2023-12-14T00:16:50;32.67;;;31.77;;
80104;SDS011;69865;47.648;19.030;2023-12-14T00:17:22;32.53;;;31.80;;
80104;SDS011;69865;47.648;19.030;2023-12-14T00:17:55;33.87;;;33.03;;
80104;SDS011;69865;47.648;19.030;2023-12-14T00:18:27;32.80;;;31.73;;
80104;SDS011;69865;47.648;19.030;2023-12-14T00:18:59;32.80;;;32.07;;
80104;SDS011;69865;47.648;19.030;2023-12-14T00:19:32;32.53;;;32.00;;
80104;SDS011;69865;47.648;19.030;2023-12-14T00:20:04;32.60;;;31.97;;
80104;SDS011;69865;47.648;19.030;2023-12-14T00:20:37;32.27;;;31.50;;
80104;SDS011;69865;47.648;19.030;2023-12-14T00:21:09;34.10;;;33.23;;
80104;SDS011;69865;47.648;19.030;2023-12-14T00:21:42;35.03;;;34.17;;
80104;SDS011;69865;47.648;19.030;2023-12-14T00:22:14;35.83;;;34.77;;
80104;SDS011;69865;47.648;19.030;2023-12-14T00:22:46;34.57;;;33.67;;
80104;SDS011;69865;47.648;19.030;2023-12-14T00:23:18;35.63;;;34.40;;
80104;SDS011;69865;47.648;19.030;2023-12-14T00:23:50;34.47;;;33.43;;
80104;SDS011;69865;47.648;19.030;2023-12-14T00:24:22;33.27;;;32.47;;
80104;SDS011;69865;47.648;19.030;2023-12-14T00:24:54;32.07;;;31.47;;
80104;SDS011;69865;47.648;19.030;2023-12-14T00:25:26;30.87;;;30.53;;
80104;SDS011;69865;47.648;19.030;2023-12-14T00:25:59;32.33;;;32.03;;
80104;SDS011;69865;47.648;19.030;2023-12-14T00:26:31;35.30;;;34.67;;
80104;SDS011;69865;47.648;19.030;2023-12-14T00:27:03;34.97;;;34.17;;
80104;SDS011;69865;47.648;19.030;2023-12-14T00:27:35;35.77;;;34.73;;
80104;SDS011;69865;47.648;19.030;2023-12-14T00:28:09;35.50;;;34.07;;
80104;SDS011;69865;47.648;19.030;2023-12-14T00:28:41;35.33;;;33.77;;
80104;SDS011;69865;47.648;19.030;2023-12-14T00:29:13;34.23;;;32.83;;
80104;SDS011;69865;47.648;19.030;2023-12-14T00:29:45;33.13;;;32.03;;
80104;SDS011;69865;47.648;19.030;2023-12-14T00:30:17;33.20;;;32.23;;
80104;SDS011;69865;47.648;19.030;2023-12-14T00:30:49;34.47;;;33.50;;
80104;SDS011;69865;47.648;19.030;2023-12-14T00:31:21;35.33;;;34.50;;
80104;SDS011;69865;47.648;19.030;2023-12-14T00:31:53;32.70;;;31.97;;
80104;SDS011;69865;47.648;19.030;2023-12-14T00:32:25;32.60;;;32.00;;
80104;SDS011;69865;47.648;19.030;2023-12-14T00:32:58;34.33;;;33.40;;
80104;SDS011;69865;47.648;19.030;2023-12-14T00:33:30;33.60;;;32.77;;
80104;SDS011;69865;47.648;19.030;2023-12-14T00:34:02;32.07;;;31.57;;
80104;SDS011;69865;47.648;19.030;2023-12-14T00:34:35;32.50;;;31.83;;
80104;SDS011;69865;47.648;19.030;2023-12-14T00:35:07;30.57;;;30.07;;
80104;SDS011;69865;47.648;19.030;2023-12-14T00:35:39;32.27;;;31.60;;
80104;SDS011;69865;47.648;19.030;2023-12-14T00:36:17;35.37;;;34.10;;
80104;SDS011;69865;47.648;19.030;2023-12-14T00:36:49;35.07;;;33.93;;
80104;SDS011;69865;47.648;19.030;2023-12-14T00:37:21;36.07;;;35.00;;
80104;SDS011;69865;47.648;19.030;2023-12-14T00:37:53;35.77;;;34.90;;
80104;SDS011;69865;47.648;19.030;2023-12-14T00:38:26;35.00;;;34.37;;
80104;SDS011;69865;47.648;19.030;2023-12-14T00:38:58;33.10;;;32.50;;
80104;SDS011;69865;47.648;19.030;2023-12-14T00:39:30;33.23;;;32.47;;
80104;SDS011;69865;47.648;19.030;2023-12-14T00:40:02;32.87;;;32.17;;
80104;SDS011;69865;47.648;19.030;2023-12-14T00:40:34;33.93;;;32.87;;
80104;SDS011;69865;47.648;19.030;2023-12-14T00:41:07;33.17;;;32.07;;
80104;SDS011;69865;47.648;19.030;2023-12-14T00:41:39;30.03;;;29.20;;
80104;SDS011;69865;47.648;19.030;2023-12-14T00:42:11;20.40;;;20.00;;
80104;SDS011;69865;47.648;19.030;2023-12-14T00:42:43;21.70;;;21.30;;
80104;SDS011;69865;47.648;19.030;2023-12-14T00:43:17;24.93;;;24.43;;
80104;SDS011;69865;47.648;19.030;2023-12-14T00:43:49;30.30;;;29.57;;
80104;SDS011;69865;47.648;19.030;2023-12-14T00:44:21;31.10;;;30.27;;
80104;SDS011;69865;47.648;19.030;2023-12-14T00:44:53;32.00;;;31.03;;
80104;SDS011;69865;47.648;19.030;2023-12-14T00:45:25;31.37;;;30.17;;
80104;SDS011;69865;47.648;19.030;2023-12-14T00:45:57;31.50;;;30.60;;
80104;SDS011;69865;47.648;19.030;2023-12-14T00:46:29;32.73;;;31.83;;
80104;SDS011;69865;47.648;19.030;2023-12-14T00:47:01;32.83;;;31.97;;
80104;SDS011;69865;47.648;19.030;2023-12-14T00:47:33;31.10;;;30.43;;
80104;SDS011;69865;47.648;19.030;2023-12-14T00:48:05;30.43;;;29.73;;
80104;SDS011;69865;47.648;19.030;2023-12-14T00:48:38;30.60;;;29.80;;
80104;SDS011;69865;47.648;19.030;2023-12-14T00:49:10;32.23;;;31.17;;
80104;SDS011;69865;47.648;19.030;2023-12-14T00:49:42;29.93;;;29.17;;
80104;SDS011;69865;47.648;19.030;2023-12-14T00:50:14;28.27;;;27.70;;
80104;SDS011;69865;47.648;19.030;2023-12-14T00:50:47;29.97;;;29.03;;
80104;SDS011;69865;47.648;19.030;2023-12-14T00:51:19;28.13;;;27.27;;
80104;SDS011;69865;47.648;19.030;2023-12-14T00:51:51;23.17;;;22.77;;
80104;SDS011;69865;47.648;19.030;2023-12-14T00:52:23;21.40;;;20.93;;
80104;SDS011;69865;47.648;19.030;2023-12-14T00:52:55;22.53;;;22.10;;
80104;SDS011;69865;47.648;19.030;2023-12-14T00:53:27;22.00;;;21.60;;
80104;SDS011;69865;47.648;19.030;2023-12-14T00:54:00;19.67;;;19.40;;
80104;SDS011;69865;47.648;19.030;2023-12-14T00:54:32;22.13;;;21.87;;
80104;SDS011;69865;47.648;19.030;2023-12-14T00:55:04;22.77;;;22.37;;
80104;SDS011;69865;47.648;19.030;2023-12-14T00:55:37;20.57;;;20.23;;
80104;SDS011;69865;47.648;19.030;2023-12-14T00:56:09;18.93;;;18.73;;
80104;SDS011;69865;47.648;19.030;2023-12-14T00:56:41;18.17;;;17.93;;
80104;SDS011;69865;47.648;19.030;2023-12-14T00:57:13;16.77;;;16.47;;
80104;SDS011;69865;47.648;19.030;2023-12-14T00:57:45;11.83;;;11.67;;
80104;SDS011;69865;47.648;19.030;2023-12-14T00:58:19;13.07;;;12.87;;
80104;SDS011;69865;47.648;19.030;2023-12-14T00:58:51;14.23;;;14.07;;
80104;SDS011;69865;47.648;19.030;2023-12-14T00:59:23;12.20;;;12.07;;
80104;SDS011;69865;47.648;19.030;2023-12-14T00:59:56;10.27;;;10.17;;
80104;SDS011;69865;47.648;19.030;2023-12-14T01:00:28;10.00;;;9.87;;
80104;SDS011;69865;47.648;19.030;2023-12-14T01:01:00;9.77;;;9.60;;
80104;SDS011;69865;47.648;19.030;2023-12-14T01:01:32;9.93;;;9.73;;
80104;SDS011;69865;47.648;19.030;2023-12-14T01:02:05;9.60;;;9.37;;
80104;SDS011;69865;47.648;19.030;2023-12-14T01:02:37;8.17;;;8.03;;
80104;SDS011;69865;47.648;19.030;2023-12-14T01:03:09;8.17;;;8.13;;
80104;SDS011;69865;47.648;19.030;2023-12-14T01:03:42;8.87;;;8.80;;
80104;SDS011;69865;47.648;19.030;2023-12-14T01:04:14;8.63;;;8.63;;
80104;SDS011;69865;47.648;19.030;2023-12-14T01:04:46;8.37;;;8.27;;
80104;SDS011;69865;47.648;19.030;2023-12-14T01:05:18;9.60;;;9.37;;
80104;SDS011;69865;47.648;19.030;2023-12-14T01:05:50;9.47;;;9.27;;
80104;SDS011;69865;47.648;19.030;2023-12-14T01:06:23;8.73;;;8.53;;
80104;SDS011;69865;47.648;19.030;2023-12-14T01:06:55;8.83;;;8.63;;
80104;SDS011;69865;47.648;19.030;2023-12-14T01:07:27;9.57;;;9.27;;
80104;SDS011;69865;47.648;19.030;2023-12-14T01:07:59;9.27;;;8.97;;
80104;SDS011;69865;47.648;19.030;2023-12-14T01:08:31;8.47;;;8.27;;
80104;SDS011;69865;47.648;19.030;2023-12-14T01:09:03;9.00;;;8.70;;
80104;SDS011;69865;47.648;19.030;2023-12-14T01:09:36;9.13;;;8.87;;
80104;SDS011;69865;47.648;19.030;2023-12-14T01:10:08;9.00;;;8.73;;
80104;SDS011;69865;47.648;19.030;2023-12-14T01:10:40;8.90;;;8.67;;
80104;SDS011;69865;47.648;19.030;2023-12-14T01:11:12;9.27;;;9.03;;
80104;SDS011;69865;47.648;19.030;2023-12-14T01:11:44;9.27;;;9.00;;
80104;SDS011;69865;47.648;19.030;2023-12-14T01:12:17;9.37;;;9.03;;
80104;SDS011;69865;47.648;19.030;2023-12-14T01:12:49;10.23;;;9.90;;
80104;SDS011;69865;47.648;19.030;2023-12-14T01:13:22;10.03;;;9.70;;
80104;SDS011;69865;47.648;19.030;2023-12-14T01:13:54;9.33;;;9.10;;
80104;SDS011;69865;47.648;19.030;2023-12-14T01:14:27;9.47;;;9.27;;
80104;SDS011;69865;47.648;19.030;2023-12-14T01:14:59;9.57;;;9.27;;
80104;SDS011;69865;47.648;19.030;2023-12-14T01:15:31;9.83;;;9.50;;
80104;SDS011;69865;47.648;19.030;2023-12-14T01:16:03;10.23;;;9.93;;
80104;SDS011;69865;47.648;19.030;2023-12-14T01:16:36;10.03;;;9.70;;
80104;SDS011;69865;47.648;19.030;2023-12-14T01:17:08;11.37;;;11.00;;
80104;SDS011;69865;47.648;19.030;2023-12-14T01:17:40;10.00;;;9.67;;
80104;SDS011;69865;47.648;19.030;2023-12-14T01:18:12;10.67;;;10.23;;
80104;SDS011;69865;47.648;19.030;2023-12-14T01:18:45;10.37;;;10.00;;
80104;SDS011;69865;47.648;19.030;2023-12-14T01:19:17;10.37;;;10.07;;
80104;SDS011;69865;47.648;19.030;2023-12-14T01:19:49;11.00;;;10.70;;
80104;SDS011;69865;47.648;19.030;2023-12-14T01:20:21;10.53;;;10.23;;
80104;SDS011;69865;47.648;19.030;2023-12-14T01:20:53;10.37;;;9.97;;
80104;SDS011;69865;47.648;19.030;2023-12-14T01:21:25;10.70;;;10.30;;
80104;SDS011;69865;47.648;19.030;2023-12-14T01:21:57;10.80;;;10.37;;
80104;SDS011;69865;47.648;19.030;2023-12-14T01:22:29;11.20;;;10.83;;
80104;SDS011;69865;47.648;19.030;2023-12-14T01:23:02;11.80;;;11.30;;
80104;SDS011;69865;47.648;19.030;2023-12-14T01:23:34;11.23;;;10.77;;
80104;SDS011;69865;47.648;19.030;2023-12-14T01:24:06;11.53;;;11.17;;
80104;SDS011;69865;47.648;19.030;2023-12-14T01:24:38;12.20;;;11.83;;
80104;SDS011;69865;47.648;19.030;2023-12-14T01:25:10;11.97;;;11.63;;
80104;SDS011;69865;47.648;19.030;2023-12-14T01:25:42;12.30;;;12.07;;
80104;SDS011;69865;47.648;19.030;2023-12-14T01:26:14;11.47;;;11.23;;
80104;SDS011;69865;47.648;19.030;2023-12-14T01:26:46;11.97;;;11.70;;
80104;SDS011;69865;47.648;19.030;2023-12-14T01:27:18;11.73;;;11.57;;
80104;SDS011;69865;47.648;19.030;2023-12-14T01:27:51;11.13;;;10.93;;
80104;SDS011;69865;47.648;19.030;2023-12-14T01:28:24;11.30;;;11.10;;
80104;SDS011;69865;47.648;19.030;2023-12-14T01:28:56;11.90;;;11.60;;
80104;SDS011;69865;47.648;19.030;2023-12-14T01:29:28;11.60;;;11.37;;
80104;SDS011;69865;47.648;19.030;2023-12-14T01:30:00;12.10;;;11.87;;
80104;SDS011;69865;47.648;19.030;2023-12-14T01:30:33;11.27;;;11.07;;
80104;SDS011;69865;47.648;19.030;2023-12-14T01:31:05;11.80;;;11.60;;
80104;SDS011;69865;47.648;19.030;2023-12-14T01:31:37;11.00;;;10.80;;
80104;SDS011;69865;47.648;19.030;2023-12-14T01:32:09;11.27;;;11.07;;
80104;SDS011;69865;47.648;19.030;2023-12-14T01:32:41;12.43;;;12.20;;
80104;SDS011;69865;47.648;19.030;2023-12-14T01:33:13;12.27;;;12.07;;
80104;SDS011;69865;47.648;19.030;2023-12-14T01:33:46;11.53;;;11.33;;
80104;SDS011;69865;47.648;19.030;2023-12-14T01:34:18;12.47;;;12.20;;
80104;SDS011;69865;47.648;19.030;2023-12-14T01:34:53;11.90;;;11.67;;
80104;SDS011;69865;47.648;19.030;2023-12-14T01:35:25;12.13;;;11.93;;
80104;SDS011;69865;47.648;19.030;2023-12-14T01:35:57;11.90;;;11.60;;
80104;SDS011;69865;47.648;19.030;2023-12-14T01:36:30;11.83;;;11.53;;
80104;SDS011;69865;47.648;19.030;2023-12-14T01:37:03;11.77;;;11.47;;
80104;SDS011;69865;47.648;19.030;2023-12-14T01:37:36;11.60;;;11.40;;
80104;SDS011;69865;47.648;19.030;2023-12-14T01:38:08;12.37;;;12.03;;
80104;SDS011;69865;47.648;19.030;2023-12-14T01:38:40;12.63;;;12.23;;
80104;SDS011;69865;47.648;19.030;2023-12-14T01:39:12;12.10;;;11.77;;
80104;SDS011;69865;47.648;19.030;2023-12-14T01:39:44;12.80;;;12.40;;
80104;SDS011;69865;47.648;19.030;2023-12-14T01:40:18;12.37;;;12.03;;
80104;SDS011;69865;47.648;19.030;2023-12-14T01:40:51;12.77;;;12.37;;
80104;SDS011;69865;47.648;19.030;2023-12-14T01:41:23;12.57;;;12.23;;
80104;SDS011;69865;47.648;19.030;2023-12-14T01:41:55;12.70;;;12.40;;
80104;SDS011;69865;47.648;19.030;2023-12-14T01:42:27;12.30;;;12.00;;
80104;SDS011;69865;47.648;19.030;2023-12-14T01:43:06;12.37;;;12.03;;
80104;SDS011;69865;47.648;19.030;2023-12-14T01:43:40;12.10;;;11.73;;
80104;SDS011;69865;47.648;19.030;2023-12-14T01:44:13;11.93;;;11.57;;
80104;SDS011;69865;47.648;19.030;2023-12-14T01:44:45;11.73;;;11.37;;
80104;SDS011;69865;47.648;19.030;2023-12-14T01:45:17;11.33;;;11.07;;
80104;SDS011;69865;47.648;19.030;2023-12-14T01:45:52;11.63;;;11.30;;
80104;SDS011;69865;47.648;19.030;2023-12-14T01:46:25;11.23;;;11.00;;
80104;SDS011;69865;47.648;19.030;2023-12-14T01:46:57;11.10;;;10.80;;
80104;SDS011;69865;47.648;19.030;2023-12-14T01:47:29;11.30;;;10.93;;
80104;SDS011;69865;47.648;19.030;2023-12-14T01:48:01;10.70;;;10.33;;
80104;SDS011;69865;47.648;19.030;2023-12-14T01:48:34;11.10;;;10.70;;
80104;SDS011;69865;47.648;19.030;2023-12-14T01:49:06;10.73;;;10.33;;
80104;SDS011;69865;47.648;19.030;2023-12-14T01:49:38;10.63;;;10.27;;
80104;SDS011;69865;47.648;19.030;2023-12-14T01:50:10;10.63;;;10.37;;
80104;SDS011;69865;47.648;19.030;2023-12-14T01:50:43;10.47;;;10.23;;
80104;SDS011;69865;47.648;19.030;2023-12-14T01:51:15;9.87;;;9.63;;
80104;SDS011;69865;47.648;19.030;2023-12-14T01:51:47;9.70;;;9.47;;
80104;SDS011;69865;47.648;19.030;2023-12-14T01:52:19;9.77;;;9.50;;
80104;SDS011;69865;47.648;19.030;2023-12-14T01:52:51;10.00;;;9.73;;
80104;SDS011;69865;47.648;19.030;2023-12-14T01:53:23;9.63;;;9.40;;
80104;SDS011;69865;47.648;19.030;2023-12-14T01:53:55;9.23;;;9.00;;
80104;SDS011;69865;47.648;19.030;2023-12-14T01:54:27;10.03;;;9.80;;
80104;SDS011;69865;47.648;19.030;2023-12-14T01:55:00;10.70;;;10.43;;
80104;SDS011;69865;47.648;19.030;2023-12-14T01:55:35;10.47;;;10.17;;
80104;SDS011;69865;47.648;19.030;2023-12-14T01:56:07;10.57;;;10.27;;
80104;SDS011;69865;47.648;19.030;2023-12-14T01:56:40;10.07;;;9.80;;
80104;SDS011;69865;47.648;19.030;2023-12-14T01:57:12;9.60;;;9.37;;
80104;SDS011;69865;47.648;19.030;2023-12-14T01:57:44;10.60;;;10.27;;
80104;SDS011;69865;47.648;19.030;2023-12-14T01:58:16;11.20;;;10.80;;
80104;SDS011;69865;47.648;19.030;2023-12-14T01:58:50;10.97;;;10.63;;
80104;SDS011;69865;47.648;19.030;2023-12-14T01:59:22;11.13;;;10.77;;
80104;SDS011;69865;47.648;19.030;2023-12-14T01:59:54;10.57;;;10.27;;
80104;SDS011;69865;47.648;19.030;2023-12-14T02:00:28;11.03;;;10.67;;
80104;SDS011;69865;47.648;19.030;2023-12-14T02:01:21;10.50;;;10.17;;
80104;SDS011;69865;47.648;19.030;2023-12-14T02:02:00;11.37;;;11.03;;
80104;SDS011;69865;47.648;19.030;2023-12-14T02:02:33;10.80;;;10.50;;
80104;SDS011;69865;47.648;19.030;2023-12-14T02:03:08;11.37;;;11.03;;
80104;SDS011;69865;47.648;19.030;2023-12-14T02:03:43;11.00;;;10.70;;
80104;SDS011;69865;47.648;19.030;2023-12-14T02:04:16;11.43;;;11.17;;
80104;SDS011;69865;47.648;19.030;2023-12-14T02:04:49;11.10;;;10.80;;
80104;SDS011;69865;47.648;19.030;2023-12-14T02:05:21;10.80;;;10.43;;
80104;SDS011;69865;47.648;19.030;2023-12-14T02:05:53;10.27;;;9.97;;
80104;SDS011;69865;47.648;19.030;2023-12-14T02:06:25;10.27;;;9.93;;
80104;SDS011;69865;47.648;19.030;2023-12-14T02:06:58;10.80;;;10.47;;
80104;SDS011;69865;47.648;19.030;2023-12-14T02:07:30;10.70;;;10.33;;
80104;SDS011;69865;47.648;19.030;2023-12-14T02:08:02;11.63;;;11.23;;
80104;SDS011;69865;47.648;19.030;2023-12-14T02:08:34;10.40;;;10.07;;
80104;SDS011;69865;47.648;19.030;2023-12-14T02:09:06;11.30;;;10.97;;
80104;SDS011;69865;47.648;19.030;2023-12-14T02:09:38;10.27;;;9.97;;
80104;SDS011;69865;47.648;19.030;2023-12-14T02:10:10;10.70;;;10.40;;
80104;SDS011;69865;47.648;19.030;2023-12-14T02:10:43;10.90;;;10.53;;
80104;SDS011;69865;47.648;19.030;2023-12-14T02:11:15;10.37;;;9.93;;
80104;SDS011;69865;47.648;19.030;2023-12-14T02:11:47;10.43;;;10.07;;
80104;SDS011;69865;47.648;19.030;2023-12-14T02:12:19;10.90;;;10.57;;
80104;SDS011;69865;47.648;19.030;2023-12-14T02:12:51;10.53;;;10.13;;
80104;SDS011;69865;47.648;19.030;2023-12-14T02:13:24;10.23;;;9.93;;
80104;SDS011;69865;47.648;19.030;2023-12-14T02:13:57;10.23;;;9.93;;
80104;SDS011;69865;47.648;19.030;2023-12-14T02:14:29;10.00;;;9.73;;
80104;SDS011;69865;47.648;19.030;2023-12-14T02:15:01;9.80;;;9.67;;
80104;SDS011;69865;47.648;19.030;2023-12-14T02:15:34;9.87;;;9.67;;
80104;SDS011;69865;47.648;19.030;2023-12-14T02:17:15;7.87;;;7.67;;
80104;SDS011;69865;47.648;19.030;2023-12-14T02:17:50;8.30;;;8.07;;
80104;SDS011;69865;47.648;19.030;2023-12-14T02:18:22;8.47;;;8.20;;
80104;SDS011;69865;47.648;19.030;2023-12-14T02:18:54;8.40;;;8.20;;
80104;SDS011;69865;47.648;19.030;2023-12-14T02:19:26;9.00;;;8.73;;
80104;SDS011;69865;47.648;19.030;2023-12-14T02:19:58;9.30;;;9.03;;
80104;SDS011;69865;47.648;19.030;2023-12-14T02:20:30;9.43;;;9.13;;
80104;SDS011;69865;47.648;19.030;2023-12-14T02:21:03;9.37;;;9.03;;
80104;SDS011;69865;47.648;19.030;2023-12-14T02:21:35;9.43;;;9.13;;
80104;SDS011;69865;47.648;19.030;2023-12-14T02:22:07;8.57;;;8.37;;
80104;SDS011;69865;47.648;19.030;2023-12-14T02:22:49;8.67;;;8.50;;
80104;SDS011;69865;47.648;19.030;2023-12-14T02:23:22;8.50;;;8.30;;
80104;SDS011;69865;47.648;19.030;2023-12-14T02:23:54;8.97;;;8.73;;
80104;SDS011;69865;47.648;19.030;2023-12-14T02:24:26;9.23;;;8.93;;
80104;SDS011;69865;47.648;19.030;2023-12-14T02:24:58;9.43;;;9.07;;
80104;SDS011;69865;47.648;19.030;2023-12-14T02:25:30;8.83;;;8.53;;
80104;SDS011;69865;47.648;19.030;2023-12-14T02:26:02;9.07;;;8.83;;
80104;SDS011;69865;47.648;19.030;2023-12-14T02:26:35;9.40;;;9.40;;
80104;SDS011;69865;47.648;19.030;2023-12-14T02:27:07;8.87;;;8.83;;
80104;SDS011;69865;47.648;19.030;2023-12-14T02:27:39;9.43;;;9.33;;
80104;SDS011;69865;47.648;19.030;2023-12-14T02:28:11;9.10;;;8.87;;
80104;SDS011;69865;47.648;19.030;2023-12-14T02:28:43;8.77;;;8.47;;
80104;SDS011;69865;47.648;19.030;2023-12-14T02:29:15;8.87;;;8.50;;
80104;SDS011;69865;47.648;19.030;2023-12-14T02:29:48;9.57;;;9.27;;
80104;SDS011;69865;47.648;19.030;2023-12-14T02:30:20;10.13;;;9.73;;
80104;SDS011;69865;47.648;19.030;2023-12-14T02:30:52;9.60;;;9.17;;
80104;SDS011;69865;47.648;19.030;2023-12-14T02:31:24;9.03;;;8.63;;
80104;SDS011;69865;47.648;19.030;2023-12-14T02:31:56;9.40;;;9.03;;
80104;SDS011;69865;47.648;19.030;2023-12-14T02:32:28;9.73;;;9.43;;
80104;SDS011;69865;47.648;19.030;2023-12-14T02:33:00;9.73;;;9.47;;
80104;SDS011;69865;47.648;19.030;2023-12-14T02:33:33;9.43;;;9.23;;
80104;SDS011;69865;47.648;19.030;2023-12-14T02:34:06;9.97;;;9.67;;
80104;SDS011;69865;47.648;19.030;2023-12-14T02:34:38;10.07;;;9.83;;
80104;SDS011;69865;47.648;19.030;2023-12-14T02:35:10;9.30;;;9.13;;
80104;SDS011;69865;47.648;19.030;2023-12-14T02:35:43;9.90;;;9.77;;
80104;SDS011;69865;47.648;19.030;2023-12-14T02:36:15;9.60;;;9.40;;
80104;SDS011;69865;47.648;19.030;2023-12-14T02:36:47;9.57;;;9.33;;
80104;SDS011;69865;47.648;19.030;2023-12-14T02:37:19;9.73;;;9.40;;
80104;SDS011;69865;47.648;19.030;2023-12-14T02:37:53;10.03;;;9.73;;
80104;SDS011;69865;47.648;19.030;2023-12-14T02:38:25;9.30;;;9.03;;
80104;SDS011;69865;47.648;19.030;2023-12-14T02:38:58;9.90;;;9.60;;
80104;SDS011;69865;47.648;19.030;2023-12-14T02:39:30;8.37;;;8.30;;
80104;SDS011;69865;47.648;19.030;2023-12-14T02:40:02;8.80;;;8.73;;
80104;SDS011;69865;47.648;19.030;2023-12-14T02:40:35;9.33;;;9.13;;
80104;SDS011;69865;47.648;19.030;2023-12-14T02:41:07;8.83;;;8.63;;
80104;SDS011;69865;47.648;19.030;2023-12-14T02:41:39;9.27;;;9.03;;
80104;SDS011;69865;47.648;19.030;2023-12-14T02:42:11;10.03;;;9.77;;
80104;SDS011;69865;47.648;19.030;2023-12-14T02:42:43;9.47;;;9.27;;
80104;SDS011;69865;47.648;19.030;2023-12-14T02:43:16;9.37;;;9.17;;
80104;SDS011;69865;47.648;19.030;2023-12-14T02:43:48;8.80;;;8.67;;
80104;SDS011;69865;47.648;19.030;2023-12-14T02:44:22;9.07;;;9.00;;
80104;SDS011;69865;47.648;19.030;2023-12-14T02:44:54;9.23;;;9.17;;
80104;SDS011;69865;47.648;19.030;2023-12-14T02:45:26;9.00;;;8.83;;
80104;SDS011;69865;47.648;19.030;2023-12-14T02:45:58;8.40;;;8.20;;
80104;SDS011;69865;47.648;19.030;2023-12-14T02:46:30;8.23;;;8.00;;
80104;SDS011;69865;47.648;19.030;2023-12-14T02:47:02;9.20;;;8.90;;
80104;SDS011;69865;47.648;19.030;2023-12-14T02:47:35;9.13;;;8.87;;
80104;SDS011;69865;47.648;19.030;2023-12-14T02:48:07;9.90;;;9.60;;
80104;SDS011;69865;47.648;19.030;2023-12-14T02:48:40;10.50;;;10.13;;
80104;SDS011;69865;47.648;19.030;2023-12-14T02:49:13;10.40;;;10.10;;
80104;SDS011;69865;47.648;19.030;2023-12-14T02:49:45;9.73;;;9.43;;
80104;SDS011;69865;47.648;19.030;2023-12-14T02:50:17;10.83;;;10.47;;
80104;SDS011;69865;47.648;19.030;2023-12-14T02:50:49;11.17;;;10.87;;
80104;SDS011;69865;47.648;19.030;2023-12-14T02:51:21;10.70;;;10.40;;
80104;SDS011;69865;47.648;19.030;2023-12-14T02:51:53;9.57;;;9.27;;
80104;SDS011;69865;47.648;19.030;2023-12-14T02:52:25;9.70;;;9.40;;
80104;SDS011;69865;47.648;19.030;2023-12-14T02:52:58;10.60;;;10.27;;
80104;SDS011;69865;47.648;19.030;2023-12-14T02:53:31;10.47;;;10.20;;
80104;SDS011;69865;47.648;19.030;2023-12-14T02:54:03;10.23;;;9.93;;
80104;SDS011;69865;47.648;19.030;2023-12-14T02:54:36;10.87;;;10.50;;
80104;SDS011;69865;47.648;19.030;2023-12-14T02:55:09;10.83;;;10.43;;
80104;SDS011;69865;47.648;19.030;2023-12-14T02:55:41;10.33;;;9.90;;
80104;SDS011;69865;47.648;19.030;2023-12-14T02:56:13;10.70;;;10.30;;
80104;SDS011;69865;47.648;19.030;2023-12-14T02:56:46;10.90;;;10.50;;
80104;SDS011;69865;47.648;19.030;2023-12-14T02:57:18;10.70;;;10.33;;
80104;SDS011;69865;47.648;19.030;2023-12-14T02:57:50;10.83;;;10.43;;
80104;SDS011;69865;47.648;19.030;2023-12-14T02:58:22;11.23;;;10.83;;
80104;SDS011;69865;47.648;19.030;2023-12-14T02:58:55;10.73;;;10.30;;
80104;SDS011;69865;47.648;19.030;2023-12-14T02:59:27;11.07;;;10.70;;
80104;SDS011;69865;47.648;19.030;2023-12-14T02:59:59;10.90;;;10.57;;
80104;SDS011;69865;47.648;19.030;2023-12-14T03:00:32;10.97;;;10.67;;
80104;SDS011;69865;47.648;19.030;2023-12-14T03:01:04;11.07;;;10.77;;
80104;SDS011;69865;47.648;19.030;2023-12-14T03:01:37;10.37;;;10.07;;
80104;SDS011;69865;47.648;19.030;2023-12-14T03:02:09;10.63;;;10.30;;
80104;SDS011;69865;47.648;19.030;2023-12-14T03:02:41;11.33;;;11.03;;
80104;SDS011;69865;47.648;19.030;2023-12-14T03:03:13;11.60;;;11.23;;
80104;SDS011;69865;47.648;19.030;2023-12-14T03:03:45;10.93;;;10.57;;
80104;SDS011;69865;47.648;19.030;2023-12-14T03:04:18;10.83;;;10.43;;
80104;SDS011;69865;47.648;19.030;2023-12-14T03:04:50;10.90;;;10.50;;
80104;SDS011;69865;47.648;19.030;2023-12-14T03:05:22;10.53;;;10.13;;
80104;SDS011;69865;47.648;19.030;2023-12-14T03:05:54;11.13;;;10.70;;
80104;SDS011;69865;47.648;19.030;2023-12-14T03:06:27;10.87;;;10.47;;
80104;SDS011;69865;47.648;19.030;2023-12-14T03:06:59;11.53;;;11.07;;
80104;SDS011;69865;47.648;19.030;2023-12-14T03:07:31;10.87;;;10.47;;
80104;SDS011;69865;47.648;19.030;2023-12-14T03:08:04;11.37;;;10.97;;
80104;SDS011;69865;47.648;19.030;2023-12-14T03:08:37;11.20;;;10.83;;
80104;SDS011;69865;47.648;19.030;2023-12-14T03:09:09;11.17;;;10.87;;
80104;SDS011;69865;47.648;19.030;2023-12-14T03:09:41;11.00;;;10.70;;